sensor_id;sensor_type;location;lat;lon;timestamp;P1;durP1;ratioP1;P2;durP2;ratioP2
35364;SDS011;21464;48.112;11.530;2023-03-23T00:02:14;3.25;;;2.65;;
35364;SDS011;21464;48.112;11.530;2023-03-23T00:04:41;2.80;;;2.60;;
35364;SDS011;21464;48.112;11.530;2023-03-23T00:07:08;2.80;;;2.58;;
35364;SDS011;21464;48.112;11.530;2023-03-23T00:09:34;2.65;;;2.45;;
35364;SDS011;21464;48.112;11.530;2023-03-23T00:12:07;3.00;;;2.67;;
35364;SDS011;21464;48.112;11.530;2023-03-23T00:14:33;2.20;;;2.10;;
35364;SDS011;21464;48.112;11.530;2023-03-23T00:17:07;2.65;;;2.40;;
35364;SDS011;21464;48.112;11.530;2023-03-23T00:19:37;3.17;;;2.88;;
35364;SDS011;21464;48.112;11.530;2023-03-23T00:22:12;2.97;;;2.30;;
35364;SDS011;21464;48.112;11.530;2023-03-23T00:24:40;3.33;;;2.65;;
35364;SDS011;21464;48.112;11.530;2023-03-23T00:27:07;2.60;;;2.40;;
35364;SDS011;21464;48.112;11.530;2023-03-23T00:29:35;2.90;;;2.70;;
35364;SDS011;21464;48.112;11.530;2023-03-23T00:32:01;3.00;;;2.42;;
35364;SDS011;21464;48.112;11.530;2023-03-23T00:34:31;3.78;;;2.83;;
35364;SDS011;21464;48.112;11.530;2023-03-23T00:36:58;4.03;;;2.58;;
35364;SDS011;21464;48.112;11.530;2023-03-23T00:39:26;2.67;;;2.25;;
35364;SDS011;21464;48.112;11.530;2023-03-23T00:41:53;2.65;;;2.17;;
35364;SDS011;21464;48.112;11.530;2023-03-23T00:44:27;3.13;;;2.60;;
35364;SDS011;21464;48.112;11.530;2023-03-23T00:46:54;3.17;;;2.97;;
35364;SDS011;21464;48.112;11.530;2023-03-23T00:49:22;5.13;;;2.60;;
35364;SDS011;21464;48.112;11.530;2023-03-23T00:51:54;2.45;;;2.25;;
35364;SDS011;21464;48.112;11.530;2023-03-23T00:54:23;4.13;;;2.50;;
35364;SDS011;21464;48.112;11.530;2023-03-23T00:56:50;2.55;;;2.35;;
35364;SDS011;21464;48.112;11.530;2023-03-23T00:59:16;2.67;;;2.47;;
35364;SDS011;21464;48.112;11.530;2023-03-23T01:01:43;2.83;;;2.60;;
35364;SDS011;21464;48.112;11.530;2023-03-23T01:04:10;2.35;;;2.15;;
35364;SDS011;21464;48.112;11.530;2023-03-23T01:06:38;2.83;;;2.13;;
35364;SDS011;21464;48.112;11.530;2023-03-23T01:09:06;2.80;;;2.60;;
35364;SDS011;21464;48.112;11.530;2023-03-23T01:11:34;2.40;;;2.20;;
35364;SDS011;21464;48.112;11.530;2023-03-23T01:14:00;2.10;;;2.00;;
35364;SDS011;21464;48.112;11.530;2023-03-23T01:16:27;3.03;;;2.63;;
35364;SDS011;21464;48.112;11.530;2023-03-23T01:18:53;2.10;;;2.00;;
35364;SDS011;21464;48.112;11.530;2023-03-23T01:21:20;3.95;;;2.17;;
35364;SDS011;21464;48.112;11.530;2023-03-23T01:23:47;3.45;;;2.40;;
35364;SDS011;21464;48.112;11.530;2023-03-23T01:26:18;1.95;;;1.85;;
35364;SDS011;21464;48.112;11.530;2023-03-23T01:28:46;2.60;;;2.40;;
35364;SDS011;21464;48.112;11.530;2023-03-23T01:31:14;2.60;;;2.40;;
35364;SDS011;21464;48.112;11.530;2023-03-23T01:33:44;2.50;;;2.30;;
35364;SDS011;21464;48.112;11.530;2023-03-23T01:36:15;2.47;;;2.28;;
35364;SDS011;21464;48.112;11.530;2023-03-23T01:38:49;2.00;;;1.90;;
35364;SDS011;21464;48.112;11.530;2023-03-23T01:41:16;2.20;;;2.10;;
35364;SDS011;21464;48.112;11.530;2023-03-23T01:46:55;2.35;;;2.15;;
35364;SDS011;21464;48.112;11.530;2023-03-23T01:49:32;2.13;;;2.03;;
35364;SDS011;21464;48.112;11.530;2023-03-23T01:52:04;2.88;;;2.08;;
35364;SDS011;21464;48.112;11.530;2023-03-23T01:54:33;2.00;;;1.90;;
35364;SDS011;21464;48.112;11.530;2023-03-23T01:57:09;2.53;;;2.33;;
35364;SDS011;21464;48.112;11.530;2023-03-23T01:59:39;2.05;;;1.95;;
35364;SDS011;21464;48.112;11.530;2023-03-23T02:02:20;2.60;;;2.38;;
35364;SDS011;21464;48.112;11.530;2023-03-23T02:04:49;2.97;;;2.15;;
35364;SDS011;21464;48.112;11.530;2023-03-23T02:07:16;2.60;;;2.22;;
35364;SDS011;21464;48.112;11.530;2023-03-23T02:09:44;2.00;;;1.90;;
35364;SDS011;21464;48.112;11.530;2023-03-23T02:12:10;3.53;;;2.38;;
35364;SDS011;21464;48.112;11.530;2023-03-23T02:14:38;2.85;;;2.10;;
35364;SDS011;21464;48.112;11.530;2023-03-23T02:17:05;2.20;;;2.03;;
35364;SDS011;21464;48.112;11.530;2023-03-23T02:19:41;2.40;;;2.20;;
35364;SDS011;21464;48.112;11.530;2023-03-23T02:22:37;3.50;;;2.50;;
35364;SDS011;21464;48.112;11.530;2023-03-23T02:36:07;2.25;;;2.05;;
35364;SDS011;21464;48.112;11.530;2023-03-23T02:38:57;2.10;;;2.00;;
35364;SDS011;21464;48.112;11.530;2023-03-23T02:41:33;2.05;;;1.95;;
35364;SDS011;21464;48.112;11.530;2023-03-23T02:44:04;2.10;;;2.00;;
35364;SDS011;21464;48.112;11.530;2023-03-23T02:46:31;2.83;;;2.42;;
35364;SDS011;21464;48.112;11.530;2023-03-23T02:48:58;2.90;;;2.60;;
35364;SDS011;21464;48.112;11.530;2023-03-23T02:51:26;4.32;;;2.05;;
35364;SDS011;21464;48.112;11.530;2023-03-23T02:53:53;2.30;;;2.00;;
35364;SDS011;21464;48.112;11.530;2023-03-23T02:56:21;2.35;;;2.15;;
35364;SDS011;21464;48.112;11.530;2023-03-23T02:58:49;3.47;;;2.50;;
35364;SDS011;21464;48.112;11.530;2023-03-23T03:03:51;3.30;;;2.30;;
35364;SDS011;21464;48.112;11.530;2023-03-23T03:06:41;2.90;;;2.60;;
35364;SDS011;21464;48.112;11.530;2023-03-23T03:09:22;3.10;;;2.80;;
35364;SDS011;21464;48.112;11.530;2023-03-23T03:11:56;2.80;;;2.60;;
35364;SDS011;21464;48.112;11.530;2023-03-23T03:14:31;3.85;;;3.10;;
35364;SDS011;21464;48.112;11.530;2023-03-23T03:17:13;2.40;;;2.30;;
35364;SDS011;21464;48.112;11.530;2023-03-23T03:19:46;3.17;;;2.38;;
35364;SDS011;21464;48.112;11.530;2023-03-23T03:22:14;4.15;;;2.88;;
35364;SDS011;21464;48.112;11.530;2023-03-23T03:24:41;2.95;;;2.58;;
35364;SDS011;21464;48.112;11.530;2023-03-23T03:27:11;2.60;;;2.40;;
35364;SDS011;21464;48.112;11.530;2023-03-23T03:29:50;2.78;;;2.58;;
35364;SDS011;21464;48.112;11.530;2023-03-23T03:32:21;2.47;;;2.28;;
35364;SDS011;21464;48.112;11.530;2023-03-23T03:34:49;2.53;;;2.33;;
35364;SDS011;21464;48.112;11.530;2023-03-23T03:37:17;4.05;;;2.70;;
35364;SDS011;21464;48.112;11.530;2023-03-23T03:39:46;3.80;;;2.85;;
35364;SDS011;21464;48.112;11.530;2023-03-23T03:42:12;2.85;;;2.53;;
35364;SDS011;21464;48.112;11.530;2023-03-23T03:44:39;4.68;;;2.70;;
35364;SDS011;21464;48.112;11.530;2023-03-23T03:47:05;2.47;;;2.30;;
35364;SDS011;21464;48.112;11.530;2023-03-23T03:49:31;2.70;;;2.50;;
35364;SDS011;21464;48.112;11.530;2023-03-23T03:51:58;2.63;;;2.42;;
35364;SDS011;21464;48.112;11.530;2023-03-23T03:54:33;2.50;;;2.30;;
35364;SDS011;21464;48.112;11.530;2023-03-23T03:56:59;2.35;;;2.10;;
35364;SDS011;21464;48.112;11.530;2023-03-23T03:59:48;2.40;;;2.20;;
35364;SDS011;21464;48.112;11.530;2023-03-23T04:02:15;2.40;;;2.20;;
35364;SDS011;21464;48.112;11.530;2023-03-23T04:04:46;2.38;;;2.17;;
35364;SDS011;21464;48.112;11.530;2023-03-23T04:07:13;2.30;;;2.10;;
35364;SDS011;21464;48.112;11.530;2023-03-23T04:09:45;2.30;;;2.13;;
35364;SDS011;21464;48.112;11.530;2023-03-23T04:12:15;2.92;;;2.10;;
35364;SDS011;21464;48.112;11.530;2023-03-23T04:14:57;3.30;;;2.30;;
35364;SDS011;21464;48.112;11.530;2023-03-23T04:17:34;3.00;;;2.22;;
35364;SDS011;21464;48.112;11.530;2023-03-23T04:20:02;2.38;;;2.17;;
35364;SDS011;21464;48.112;11.530;2023-03-23T04:22:46;2.35;;;2.15;;
35364;SDS011;21464;48.112;11.530;2023-03-23T04:25:18;2.03;;;1.92;;
35364;SDS011;21464;48.112;11.530;2023-03-23T04:27:51;3.65;;;2.95;;
35364;SDS011;21464;48.112;11.530;2023-03-23T04:30:25;2.60;;;2.40;;
35364;SDS011;21464;48.112;11.530;2023-03-23T04:33:19;2.35;;;2.15;;
35364;SDS011;21464;48.112;11.530;2023-03-23T04:35:47;2.47;;;2.20;;
35364;SDS011;21464;48.112;11.530;2023-03-23T04:38:25;4.60;;;2.30;;
35364;SDS011;21464;48.112;11.530;2023-03-23T04:40:58;2.25;;;2.15;;
35364;SDS011;21464;48.112;11.530;2023-03-23T04:43:43;2.42;;;2.22;;
35364;SDS011;21464;48.112;11.530;2023-03-23T04:46:20;2.10;;;1.98;;
35364;SDS011;21464;48.112;11.530;2023-03-23T04:48:48;2.60;;;2.40;;
35364;SDS011;21464;48.112;11.530;2023-03-23T04:51:22;2.88;;;2.30;;
35364;SDS011;21464;48.112;11.530;2023-03-23T04:53:51;2.50;;;2.30;;
35364;SDS011;21464;48.112;11.530;2023-03-23T04:56:18;2.72;;;2.10;;
35364;SDS011;21464;48.112;11.530;2023-03-23T04:58:45;3.63;;;2.60;;
35364;SDS011;21464;48.112;11.530;2023-03-23T05:01:44;2.80;;;2.60;;
35364;SDS011;21464;48.112;11.530;2023-03-23T05:04:17;2.97;;;2.70;;
35364;SDS011;21464;48.112;11.530;2023-03-23T05:06:57;3.03;;;2.72;;
35364;SDS011;21464;48.112;11.530;2023-03-23T05:09:27;2.83;;;2.63;;
35364;SDS011;21464;48.112;11.530;2023-03-23T05:11:54;2.67;;;2.47;;
35364;SDS011;21464;48.112;11.530;2023-03-23T05:14:21;3.92;;;3.00;;
35364;SDS011;21464;48.112;11.530;2023-03-23T05:16:58;4.38;;;2.78;;
35364;SDS011;21464;48.112;11.530;2023-03-23T05:19:25;2.60;;;2.40;;
35364;SDS011;21464;48.112;11.530;2023-03-23T05:21:56;3.60;;;2.35;;
35364;SDS011;21464;48.112;11.530;2023-03-23T05:24:23;3.05;;;2.50;;
35364;SDS011;21464;48.112;11.530;2023-03-23T05:26:51;3.13;;;2.80;;
35364;SDS011;21464;48.112;11.530;2023-03-23T05:29:22;3.33;;;3.03;;
35364;SDS011;21464;48.112;11.530;2023-03-23T05:31:56;13.75;;;9.63;;
35364;SDS011;21464;48.112;11.530;2023-03-23T05:34:26;5.35;;;3.50;;
35364;SDS011;21464;48.112;11.530;2023-03-23T05:36:56;2.65;;;2.45;;
35364;SDS011;21464;48.112;11.530;2023-03-23T05:39:46;3.17;;;2.25;;
35364;SDS011;21464;48.112;11.530;2023-03-23T05:42:30;5.00;;;3.53;;
35364;SDS011;21464;48.112;11.530;2023-03-23T05:45:14;6.82;;;4.38;;
35364;SDS011;21464;48.112;11.530;2023-03-23T05:47:41;10.88;;;6.47;;
35364;SDS011;21464;48.112;11.530;2023-03-23T05:50:13;5.68;;;4.80;;
35364;SDS011;21464;48.112;11.530;2023-03-23T05:52:40;3.13;;;2.83;;
35364;SDS011;21464;48.112;11.530;2023-03-23T05:55:10;3.30;;;2.83;;
35364;SDS011;21464;48.112;11.530;2023-03-23T05:57:39;3.67;;;3.33;;
35364;SDS011;21464;48.112;11.530;2023-03-23T06:00:31;4.90;;;3.35;;
35364;SDS011;21464;48.112;11.530;2023-03-23T06:03:10;4.93;;;3.72;;
35364;SDS011;21464;48.112;11.530;2023-03-23T06:05:46;4.35;;;3.67;;
35364;SDS011;21464;48.112;11.530;2023-03-23T06:08:16;7.57;;;4.55;;
35364;SDS011;21464;48.112;11.530;2023-03-23T06:10:42;11.05;;;7.15;;
35364;SDS011;21464;48.112;11.530;2023-03-23T06:13:12;10.98;;;6.30;;
35364;SDS011;21464;48.112;11.530;2023-03-23T06:15:43;16.08;;;10.18;;
35364;SDS011;21464;48.112;11.530;2023-03-23T06:18:38;9.73;;;6.65;;
35364;SDS011;21464;48.112;11.530;2023-03-23T06:21:26;5.70;;;4.57;;
35364;SDS011;21464;48.112;11.530;2023-03-23T06:23:55;4.25;;;3.30;;
35364;SDS011;21464;48.112;11.530;2023-03-23T06:26:28;4.40;;;4.00;;
35364;SDS011;21464;48.112;11.530;2023-03-23T06:29:00;3.78;;;3.45;;
35364;SDS011;21464;48.112;11.530;2023-03-23T06:31:29;3.78;;;3.22;;
35364;SDS011;21464;48.112;11.530;2023-03-23T06:33:57;4.57;;;3.65;;
35364;SDS011;21464;48.112;11.530;2023-03-23T06:36:26;7.22;;;4.10;;
35364;SDS011;21464;48.112;11.530;2023-03-23T06:39:18;4.55;;;3.60;;
35364;SDS011;21464;48.112;11.530;2023-03-23T06:41:57;4.45;;;4.05;;
35364;SDS011;21464;48.112;11.530;2023-03-23T06:44:26;5.10;;;3.17;;
35364;SDS011;21464;48.112;11.530;2023-03-23T06:46:53;3.33;;;2.92;;
35364;SDS011;21464;48.112;11.530;2023-03-23T06:49:25;4.88;;;2.92;;
35364;SDS011;21464;48.112;11.530;2023-03-23T06:52:13;4.78;;;3.35;;
35364;SDS011;21464;48.112;11.530;2023-03-23T06:54:40;3.25;;;2.95;;
35364;SDS011;21464;48.112;11.530;2023-03-23T06:57:07;4.93;;;3.22;;
35364;SDS011;21464;48.112;11.530;2023-03-23T06:59:34;4.88;;;3.00;;
35364;SDS011;21464;48.112;11.530;2023-03-23T07:02:01;2.95;;;2.75;;
35364;SDS011;21464;48.112;11.530;2023-03-23T07:04:28;2.95;;;2.65;;
35364;SDS011;21464;48.112;11.530;2023-03-23T07:07:07;3.13;;;2.70;;
35364;SDS011;21464;48.112;11.530;2023-03-23T07:09:40;3.30;;;2.80;;
35364;SDS011;21464;48.112;11.530;2023-03-23T07:12:08;2.72;;;2.53;;
35364;SDS011;21464;48.112;11.530;2023-03-23T07:14:41;3.00;;;2.20;;
35364;SDS011;21464;48.112;11.530;2023-03-23T07:17:07;7.82;;;5.00;;
35364;SDS011;21464;48.112;11.530;2023-03-23T07:19:38;3.20;;;2.88;;
35364;SDS011;21464;48.112;11.530;2023-03-23T07:22:05;7.47;;;5.13;;
35364;SDS011;21464;48.112;11.530;2023-03-23T07:24:33;6.88;;;5.28;;
35364;SDS011;21464;48.112;11.530;2023-03-23T07:27:09;10.75;;;7.50;;
35364;SDS011;21464;48.112;11.530;2023-03-23T07:29:39;5.38;;;3.10;;
35364;SDS011;21464;48.112;11.530;2023-03-23T07:32:11;4.43;;;3.03;;
35364;SDS011;21464;48.112;11.530;2023-03-23T07:34:38;4.45;;;2.72;;
35364;SDS011;21464;48.112;11.530;2023-03-23T07:37:18;4.13;;;2.53;;
35364;SDS011;21464;48.112;11.530;2023-03-23T07:39:49;4.22;;;2.53;;
35364;SDS011;21464;48.112;11.530;2023-03-23T07:42:15;6.32;;;2.70;;
35364;SDS011;21464;48.112;11.530;2023-03-23T07:44:48;2.78;;;2.47;;
35364;SDS011;21464;48.112;11.530;2023-03-23T07:47:15;2.80;;;2.60;;
35364;SDS011;21464;48.112;11.530;2023-03-23T07:49:44;4.00;;;3.53;;
35364;SDS011;21464;48.112;11.530;2023-03-23T07:52:40;2.70;;;2.50;;
35364;SDS011;21464;48.112;11.530;2023-03-23T07:55:09;4.57;;;2.70;;
35364;SDS011;21464;48.112;11.530;2023-03-23T07:58:03;3.58;;;3.10;;
35364;SDS011;21464;48.112;11.530;2023-03-23T08:00:29;6.28;;;4.68;;
35364;SDS011;21464;48.112;11.530;2023-03-23T08:02:57;3.55;;;2.92;;
35364;SDS011;21464;48.112;11.530;2023-03-23T08:05:32;4.40;;;3.33;;
35364;SDS011;21464;48.112;11.530;2023-03-23T08:08:13;7.18;;;4.13;;
35364;SDS011;21464;48.112;11.530;2023-03-23T08:10:40;6.53;;;4.50;;
35364;SDS011;21464;48.112;11.530;2023-03-23T08:13:38;3.58;;;3.05;;
35364;SDS011;21464;48.112;11.530;2023-03-23T08:16:17;4.03;;;3.00;;
35364;SDS011;21464;48.112;11.530;2023-03-23T08:19:03;3.88;;;3.08;;
35364;SDS011;21464;48.112;11.530;2023-03-23T08:21:45;3.05;;;2.78;;
35364;SDS011;21464;48.112;11.530;2023-03-23T08:24:30;3.38;;;3.03;;
35364;SDS011;21464;48.112;11.530;2023-03-23T08:27:03;5.60;;;2.88;;
35364;SDS011;21464;48.112;11.530;2023-03-23T08:29:49;4.78;;;3.47;;
35364;SDS011;21464;48.112;11.530;2023-03-23T08:32:37;3.75;;;2.80;;
35364;SDS011;21464;48.112;11.530;2023-03-23T08:35:29;4.90;;;3.17;;
35364;SDS011;21464;48.112;11.530;2023-03-23T08:37:55;5.70;;;3.58;;
35364;SDS011;21464;48.112;11.530;2023-03-23T08:40:52;4.07;;;3.00;;
35364;SDS011;21464;48.112;11.530;2023-03-23T08:43:49;6.25;;;3.13;;
35364;SDS011;21464;48.112;11.530;2023-03-23T08:46:32;4.38;;;3.83;;
35364;SDS011;21464;48.112;11.530;2023-03-23T08:49:32;6.32;;;4.43;;
35364;SDS011;21464;48.112;11.530;2023-03-23T08:52:20;6.15;;;4.30;;
35364;SDS011;21464;48.112;11.530;2023-03-23T08:55:08;4.57;;;3.60;;
35364;SDS011;21464;48.112;11.530;2023-03-23T08:57:52;4.68;;;2.83;;
35364;SDS011;21464;48.112;11.530;2023-03-23T09:00:37;4.13;;;2.50;;
35364;SDS011;21464;48.112;11.530;2023-03-23T09:03:09;2.60;;;2.40;;
35364;SDS011;21464;48.112;11.530;2023-03-23T09:05:50;3.28;;;2.58;;
35364;SDS011;21464;48.112;11.530;2023-03-23T09:08:23;4.15;;;2.70;;
35364;SDS011;21464;48.112;11.530;2023-03-23T09:10:49;2.65;;;2.45;;
35364;SDS011;21464;48.112;11.530;2023-03-23T09:13:15;2.88;;;2.67;;
35364;SDS011;21464;48.112;11.530;2023-03-23T09:15:41;2.42;;;2.22;;
35364;SDS011;21464;48.112;11.530;2023-03-23T09:18:08;2.60;;;2.40;;
35364;SDS011;21464;48.112;11.530;2023-03-23T09:20:35;2.58;;;2.38;;
35364;SDS011;21464;48.112;11.530;2023-03-23T09:23:03;2.22;;;2.13;;
35364;SDS011;21464;48.112;11.530;2023-03-23T09:25:30;2.70;;;2.50;;
35364;SDS011;21464;48.112;11.530;2023-03-23T09:27:57;2.95;;;2.60;;
35364;SDS011;21464;48.112;11.530;2023-03-23T09:30:25;2.70;;;2.50;;
35364;SDS011;21464;48.112;11.530;2023-03-23T09:32:53;3.72;;;3.10;;
35364;SDS011;21464;48.112;11.530;2023-03-23T09:35:20;5.93;;;3.78;;
35364;SDS011;21464;48.112;11.530;2023-03-23T09:37:50;3.60;;;3.30;;
35364;SDS011;21464;48.112;11.530;2023-03-23T09:40:19;3.33;;;3.03;;
35364;SDS011;21464;48.112;11.530;2023-03-23T09:48:51;5.00;;;2.58;;
35364;SDS011;21464;48.112;11.530;2023-03-23T09:51:22;3.17;;;2.88;;
35364;SDS011;21464;48.112;11.530;2023-03-23T09:53:54;3.47;;;2.90;;
35364;SDS011;21464;48.112;11.530;2023-03-23T09:56:23;3.80;;;2.97;;
35364;SDS011;21464;48.112;11.530;2023-03-23T09:58:54;3.92;;;3.58;;
35364;SDS011;21464;48.112;11.530;2023-03-23T10:01:26;5.57;;;4.18;;
35364;SDS011;21464;48.112;11.530;2023-03-23T10:04:09;5.55;;;4.00;;
35364;SDS011;21464;48.112;11.530;2023-03-23T10:06:38;7.55;;;4.50;;
35364;SDS011;21464;48.112;11.530;2023-03-23T10:09:04;5.38;;;4.50;;
35364;SDS011;21464;48.112;11.530;2023-03-23T10:17:08;5.50;;;4.95;;
35364;SDS011;21464;48.112;11.530;2023-03-23T10:22:35;4.47;;;4.18;;
35364;SDS011;21464;48.112;11.530;2023-03-23T10:27:42;4.43;;;4.00;;
35364;SDS011;21464;48.112;11.530;2023-03-23T10:35:19;4.65;;;3.78;;
35364;SDS011;21464;48.112;11.530;2023-03-23T10:37:59;4.43;;;3.22;;
35364;SDS011;21464;48.112;11.530;2023-03-23T10:40:28;3.80;;;3.50;;
35364;SDS011;21464;48.112;11.530;2023-03-23T10:42:56;7.18;;;3.67;;
35364;SDS011;21464;48.112;11.530;2023-03-23T10:48:27;4.05;;;3.20;;
35364;SDS011;21464;48.112;11.530;2023-03-23T10:50:55;5.00;;;3.80;;
35364;SDS011;21464;48.112;11.530;2023-03-23T10:53:26;3.47;;;3.17;;
35364;SDS011;21464;48.112;11.530;2023-03-23T10:55:58;3.67;;;3.28;;
35364;SDS011;21464;48.112;11.530;2023-03-23T10:58:29;3.47;;;3.08;;
35364;SDS011;21464;48.112;11.530;2023-03-23T11:01:01;6.63;;;3.05;;
35364;SDS011;21464;48.112;11.530;2023-03-23T11:06:07;3.72;;;3.03;;
35364;SDS011;21464;48.112;11.530;2023-03-23T11:08:36;3.40;;;2.90;;
35364;SDS011;21464;48.112;11.530;2023-03-23T11:13:43;3.75;;;3.10;;
35364;SDS011;21464;48.112;11.530;2023-03-23T11:16:23;3.42;;;3.13;;
35364;SDS011;21464;48.112;11.530;2023-03-23T11:18:50;4.50;;;3.08;;
35364;SDS011;21464;48.112;11.530;2023-03-23T11:21:19;3.28;;;3.00;;
35364;SDS011;21464;48.112;11.530;2023-03-23T11:23:49;4.88;;;3.20;;
35364;SDS011;21464;48.112;11.530;2023-03-23T11:26:20;4.60;;;3.17;;
35364;SDS011;21464;48.112;11.530;2023-03-23T11:28:51;3.83;;;3.20;;
35364;SDS011;21464;48.112;11.530;2023-03-23T11:31:19;3.10;;;2.70;;
35364;SDS011;21464;48.112;11.530;2023-03-23T11:36:20;4.15;;;3.53;;
35364;SDS011;21464;48.112;11.530;2023-03-23T11:38:52;3.13;;;2.72;;
35364;SDS011;21464;48.112;11.530;2023-03-23T11:41:21;3.53;;;3.10;;
35364;SDS011;21464;48.112;11.530;2023-03-23T11:43:50;3.50;;;3.20;;
35364;SDS011;21464;48.112;11.530;2023-03-23T11:49:49;4.90;;;3.25;;
35364;SDS011;21464;48.112;11.530;2023-03-23T11:52:38;3.58;;;3.15;;
35364;SDS011;21464;48.112;11.530;2023-03-23T11:55:11;3.58;;;3.10;;
35364;SDS011;21464;48.112;11.530;2023-03-23T11:57:41;5.78;;;3.10;;
35364;SDS011;21464;48.112;11.530;2023-03-23T12:00:12;4.20;;;3.00;;
35364;SDS011;21464;48.112;11.530;2023-03-23T12:05:49;4.13;;;3.53;;
35364;SDS011;21464;48.112;11.530;2023-03-23T12:13:56;3.03;;;2.80;;
35364;SDS011;21464;48.112;11.530;2023-03-23T12:16:35;3.33;;;3.03;;
35364;SDS011;21464;48.112;11.530;2023-03-23T12:28:06;3.75;;;3.15;;
35364;SDS011;21464;48.112;11.530;2023-03-23T12:30:40;3.30;;;3.00;;
35364;SDS011;21464;48.112;11.530;2023-03-23T12:36:36;4.82;;;2.70;;
35364;SDS011;21464;48.112;11.530;2023-03-23T12:41:52;4.25;;;2.92;;
35364;SDS011;21464;48.112;11.530;2023-03-23T12:52:43;2.88;;;2.65;;
35364;SDS011;21464;48.112;11.530;2023-03-23T12:55:27;3.03;;;2.25;;
35364;SDS011;21464;48.112;11.530;2023-03-23T13:03:28;4.22;;;2.03;;
35364;SDS011;21464;48.112;11.530;2023-03-23T13:08:39;1.95;;;1.85;;
35364;SDS011;21464;48.112;11.530;2023-03-23T13:11:10;1.95;;;1.50;;
35364;SDS011;21464;48.112;11.530;2023-03-23T13:13:41;2.35;;;1.90;;
35364;SDS011;21464;48.112;11.530;2023-03-23T13:16:13;1.85;;;1.75;;
35364;SDS011;21464;48.112;11.530;2023-03-23T13:23:45;3.30;;;1.92;;
35364;SDS011;21464;48.112;11.530;2023-03-23T13:26:16;2.55;;;1.40;;
35364;SDS011;21464;48.112;11.530;2023-03-23T13:31:20;2.58;;;1.80;;
35364;SDS011;21464;48.112;11.530;2023-03-23T13:34:10;2.15;;;2.00;;
35364;SDS011;21464;48.112;11.530;2023-03-23T13:36:38;1.83;;;1.70;;
35364;SDS011;21464;48.112;11.530;2023-03-23T13:39:07;1.75;;;1.65;;
35364;SDS011;21464;48.112;11.530;2023-03-23T13:44:41;1.70;;;1.60;;
35364;SDS011;21464;48.112;11.530;2023-03-23T13:47:36;3.35;;;2.20;;
35364;SDS011;21464;48.112;11.530;2023-03-23T13:53:21;2.15;;;1.95;;
35364;SDS011;21464;48.112;11.530;2023-03-23T13:55:42;2.10;;;1.80;;
35364;SDS011;21464;48.112;11.530;2023-03-23T13:58:09;4.35;;;2.00;;
35364;SDS011;21464;48.112;11.530;2023-03-23T14:10:55;1.98;;;1.75;;
35364;SDS011;21464;48.112;11.530;2023-03-23T14:19:20;1.73;;;1.63;;
35364;SDS011;21464;48.112;11.530;2023-03-23T14:21:52;2.25;;;2.00;;
35364;SDS011;21464;48.112;11.530;2023-03-23T14:24:23;3.67;;;1.95;;
35364;SDS011;21464;48.112;11.530;2023-03-23T14:26:52;1.83;;;1.73;;
35364;SDS011;21464;48.112;11.530;2023-03-23T14:29:27;2.72;;;2.00;;
35364;SDS011;21464;48.112;11.530;2023-03-23T14:31:55;1.77;;;1.63;;
35364;SDS011;21464;48.112;11.530;2023-03-23T14:34:22;1.85;;;1.63;;
35364;SDS011;21464;48.112;11.530;2023-03-23T14:36:52;3.28;;;1.65;;
35364;SDS011;21464;48.112;11.530;2023-03-23T14:41:53;1.80;;;1.70;;
35364;SDS011;21464;48.112;11.530;2023-03-23T14:44:22;3.63;;;2.00;;
35364;SDS011;21464;48.112;11.530;2023-03-23T14:46:50;3.90;;;2.63;;
35364;SDS011;21464;48.112;11.530;2023-03-23T14:49:17;1.85;;;1.75;;
35364;SDS011;21464;48.112;11.530;2023-03-23T14:51:47;4.53;;;2.20;;
35364;SDS011;21464;48.112;11.530;2023-03-23T14:54:25;2.65;;;1.67;;
35364;SDS011;21464;48.112;11.530;2023-03-23T14:56:52;2.30;;;1.70;;
35364;SDS011;21464;48.112;11.530;2023-03-23T14:59:21;1.88;;;1.77;;
35364;SDS011;21464;48.112;11.530;2023-03-23T15:01:49;2.55;;;2.03;;
35364;SDS011;21464;48.112;11.530;2023-03-23T15:04:18;2.33;;;1.92;;
35364;SDS011;21464;48.112;11.530;2023-03-23T15:06:48;2.97;;;1.85;;
35364;SDS011;21464;48.112;11.530;2023-03-23T15:09:17;2.40;;;2.20;;
35364;SDS011;21464;48.112;11.530;2023-03-23T15:11:51;3.85;;;2.10;;
35364;SDS011;21464;48.112;11.530;2023-03-23T15:14:23;1.70;;;1.60;;
35364;SDS011;21464;48.112;11.530;2023-03-23T15:16:53;1.80;;;1.70;;
35364;SDS011;21464;48.112;11.530;2023-03-23T15:19:40;2.40;;;1.77;;
35364;SDS011;21464;48.112;11.530;2023-03-23T15:22:24;1.95;;;1.73;;
35364;SDS011;21464;48.112;11.530;2023-03-23T15:24:53;2.33;;;1.95;;
35364;SDS011;21464;48.112;11.530;2023-03-23T15:27:28;3.47;;;1.70;;
35364;SDS011;21464;48.112;11.530;2023-03-23T15:29:59;2.20;;;1.95;;
35364;SDS011;21464;48.112;11.530;2023-03-23T15:32:40;3.58;;;1.70;;
35364;SDS011;21464;48.112;11.530;2023-03-23T15:35:12;2.65;;;2.03;;
35364;SDS011;21464;48.112;11.530;2023-03-23T15:37:51;2.00;;;1.90;;
35364;SDS011;21464;48.112;11.530;2023-03-23T15:40:21;2.63;;;2.20;;
35364;SDS011;21464;48.112;11.530;2023-03-23T15:42:49;2.50;;;2.30;;
35364;SDS011;21464;48.112;11.530;2023-03-23T15:45:20;2.10;;;1.92;;
35364;SDS011;21464;48.112;11.530;2023-03-23T15:47:49;3.65;;;1.95;;
35364;SDS011;21464;48.112;11.530;2023-03-23T15:52:51;1.90;;;1.80;;
35364;SDS011;21464;48.112;11.530;2023-03-23T15:57:51;2.33;;;2.13;;
35364;SDS011;21464;48.112;11.530;2023-03-23T16:00:18;2.42;;;2.22;;
35364;SDS011;21464;48.112;11.530;2023-03-23T16:02:46;2.80;;;2.05;;
35364;SDS011;21464;48.112;11.530;2023-03-23T16:05:14;2.65;;;2.38;;
35364;SDS011;21464;48.112;11.530;2023-03-23T16:07:40;2.28;;;1.80;;
35364;SDS011;21464;48.112;11.530;2023-03-23T16:10:07;2.00;;;1.90;;
35364;SDS011;21464;48.112;11.530;2023-03-23T16:12:40;2.13;;;1.92;;
35364;SDS011;21464;48.112;11.530;2023-03-23T16:15:06;4.70;;;1.92;;
35364;SDS011;21464;48.112;11.530;2023-03-23T16:17:34;2.20;;;2.10;;
35364;SDS011;21464;48.112;11.530;2023-03-23T16:20:00;2.22;;;1.90;;
35364;SDS011;21464;48.112;11.530;2023-03-23T16:22:28;1.98;;;1.88;;
35364;SDS011;21464;48.112;11.530;2023-03-23T16:24:54;2.10;;;2.00;;
35364;SDS011;21464;48.112;11.530;2023-03-23T16:27:20;2.20;;;1.95;;
35364;SDS011;21464;48.112;11.530;2023-03-23T16:29:48;2.33;;;2.17;;
35364;SDS011;21464;48.112;11.530;2023-03-23T16:32:14;2.65;;;2.45;;
35364;SDS011;21464;48.112;11.530;2023-03-23T16:34:40;2.40;;;2.20;;
35364;SDS011;21464;48.112;11.530;2023-03-23T16:37:08;2.00;;;1.90;;
35364;SDS011;21464;48.112;11.530;2023-03-23T16:39:34;2.90;;;2.60;;
35364;SDS011;21464;48.112;11.530;2023-03-23T16:42:00;3.60;;;2.67;;
35364;SDS011;21464;48.112;11.530;2023-03-23T16:44:27;3.70;;;2.70;;
35364;SDS011;21464;48.112;11.530;2023-03-23T16:46:53;2.97;;;2.40;;
35364;SDS011;21464;48.112;11.530;2023-03-23T16:49:19;4.32;;;2.53;;
35364;SDS011;21464;48.112;11.530;2023-03-23T16:51:45;2.85;;;2.65;;
35364;SDS011;21464;48.112;11.530;2023-03-23T16:54:13;4.72;;;3.92;;
35364;SDS011;21464;48.112;11.530;2023-03-23T16:56:39;3.38;;;3.08;;
35364;SDS011;21464;48.112;11.530;2023-03-23T16:59:05;3.55;;;3.03;;
35364;SDS011;21464;48.112;11.530;2023-03-23T17:01:31;3.78;;;2.50;;
35364;SDS011;21464;48.112;11.530;2023-03-23T17:03:58;4.28;;;3.38;;
35364;SDS011;21464;48.112;11.530;2023-03-23T17:06:24;6.60;;;4.75;;
35364;SDS011;21464;48.112;11.530;2023-03-23T17:08:50;13.77;;;9.88;;
35364;SDS011;21464;48.112;11.530;2023-03-23T17:11:17;9.63;;;6.85;;
35364;SDS011;21464;48.112;11.530;2023-03-23T17:13:43;3.75;;;2.97;;